createdAt,value
2023-03-11T00:00:50.766Z,0.4
2023-03-11T00:02:55.089Z,0.5
2023-03-11T00:04:56.244Z,0.5
2023-03-11T00:06:57.310Z,0.4
2023-03-11T00:08:58.391Z,0.5
2023-03-11T00:10:59.498Z,0.5
2023-03-11T00:13:00.594Z,0.4
2023-03-11T00:15:01.688Z,0.4
2023-03-11T00:17:06.046Z,0.4
2023-03-11T00:23:36.697Z,0.3
2023-03-11T00:25:37.789Z,0.4
2023-03-11T00:27:38.889Z,0.3
2023-03-11T00:29:43.230Z,0.3
2023-03-11T00:31:44.316Z,0.3
2023-03-11T00:35:46.612Z,0.3
2023-03-11T00:41:49.827Z,0.2
2023-03-11T00:43:54.156Z,0.2
2023-03-11T00:45:55.291Z,0.2
2023-03-11T00:47:56.362Z,0.2
2023-03-11T00:49:57.450Z,0.2
2023-03-11T00:51:58.546Z,0.3
2023-03-11T00:53:59.635Z,0.2
2023-03-11T00:56:00.717Z,0.3
2023-03-11T00:58:05.077Z,0.3
2023-03-11T01:00:06.187Z,0.2
2023-03-11T01:02:07.293Z,0.3
2023-03-11T01:04:08.477Z,0.3
2023-03-11T01:08:10.564Z,0.3
2023-03-11T01:10:11.650Z,0.3
2023-03-11T01:12:16.013Z,0.2
2023-03-11T01:14:17.107Z,0.2
2023-03-11T01:17:20.414Z,0.1
2023-03-11T01:19:21.512Z,0.1
2023-03-11T01:21:22.608Z,0.1
2023-03-11T01:23:23.693Z,0.2
2023-03-11T01:25:28.084Z,0.2
2023-03-11T01:27:29.158Z,0.1
2023-03-11T01:29:30.279Z,0.1
2023-03-11T01:31:31.529Z,0.1
2023-03-11T01:33:32.468Z,0.1
2023-03-11T01:35:33.594Z,0.1
2023-03-11T01:37:34.649Z,0.1
2023-03-11T01:39:38.993Z,0.1
2023-03-11T01:41:40.085Z,0.1
2023-03-11T01:43:41.195Z,0.1
2023-03-11T01:45:42.260Z,0.1
2023-03-11T01:47:43.335Z,0.1
2023-03-11T01:49:44.425Z,0.1
2023-03-11T01:51:45.516Z,0.1
2023-03-11T01:55:50.947Z,0
2023-03-11T01:57:52.005Z,0
2023-03-11T01:59:53.082Z,-0.1
2023-03-11T02:05:56.329Z,-0.1
2023-03-11T02:08:00.675Z,-0.2
2023-03-11T02:10:01.751Z,-0.2
2023-03-11T02:12:02.870Z,-0.2
2023-03-11T02:23:13.682Z,-0.2
2023-03-11T02:25:14.785Z,-0.2
2023-03-11T02:35:23.403Z,-0.1
2023-03-11T02:37:24.454Z,-0.1
2023-03-11T02:39:25.558Z,-0.1
2023-03-11T02:41:26.660Z,-0.1
2023-03-11T02:43:27.741Z,-0.1
2023-03-11T02:45:28.817Z,-0.1
2023-03-11T02:47:29.877Z,-0.2
2023-03-11T02:53:36.375Z,-0.1
2023-03-11T02:55:37.433Z,-0.1
2023-03-11T02:57:38.533Z,-0.1
2023-03-11T02:59:39.586Z,-0.2
2023-03-11T03:01:40.695Z,-0.2
2023-03-11T03:07:47.206Z,-0.2
2023-03-11T03:08:49.350Z,-0.2
2023-03-11T03:10:50.483Z,-0.2
2023-03-11T03:12:51.494Z,-0.2
2023-03-11T03:14:52.570Z,-0.2
2023-03-11T03:16:57.060Z,-0.2
2023-03-11T03:18:57.976Z,-0.2
2023-03-11T03:20:59.042Z,-0.2
2023-03-11T03:23:00.131Z,-0.3
2023-03-11T03:25:01.189Z,-0.3
2023-03-11T03:27:02.272Z,-0.3
2023-03-11T03:29:03.365Z,-0.3
2023-03-11T03:31:07.690Z,-0.3
2023-03-11T03:33:08.782Z,-0.2
2023-03-11T03:35:09.872Z,-0.3
2023-03-11T03:37:10.916Z,-0.3
2023-03-11T03:39:11.998Z,-0.3
2023-03-11T03:43:15.621Z,-0.5
2023-03-11T03:45:19.984Z,-0.5
2023-03-11T03:47:21.051Z,-0.5
2023-03-11T03:49:22.131Z,-0.5
2023-03-11T03:51:23.184Z,-0.6
2023-03-11T03:53:24.260Z,-0.6
2023-03-11T03:55:25.326Z,-0.6
2023-03-11T03:57:26.398Z,-0.6
2023-03-11T03:59:30.680Z,-0.6
2023-03-11T04:01:31.766Z,-0.6
2023-03-11T04:03:32.841Z,-0.6
2023-03-11T04:06:01.248Z,-0.6
2023-03-11T04:08:02.325Z,-0.6
2023-03-11T04:10:03.368Z,-0.6
2023-03-11T04:14:08.832Z,-0.7
2023-03-11T04:18:11.455Z,-0.6
2023-03-11T04:20:12.505Z,-0.6
2023-03-11T04:22:13.571Z,-0.7
2023-03-11T04:24:14.651Z,-0.6
2023-03-11T04:28:20.032Z,-0.6
2023-03-11T04:30:21.075Z,-0.6
2023-03-11T04:32:22.135Z,-0.6
2023-03-11T04:34:23.167Z,-0.6
2023-03-11T04:38:25.282Z,-0.7
2023-03-11T04:40:29.628Z,-0.6
2023-03-11T04:42:30.677Z,-0.7
2023-03-11T04:44:31.765Z,-0.7
2023-03-11T04:46:32.824Z,-0.7
2023-03-11T04:48:33.855Z,-0.7
2023-03-11T04:50:34.917Z,-0.8
2023-03-11T04:52:35.965Z,-0.7
2023-03-11T04:54:40.302Z,-0.8
2023-03-11T04:56:41.368Z,-0.8
2023-03-11T04:58:42.392Z,-0.8
2023-03-11T04:59:44.575Z,-0.9
2023-03-11T05:01:45.679Z,-0.9
2023-03-11T05:05:47.721Z,-0.9
2023-03-11T05:07:52.036Z,-0.9
2023-03-11T05:09:53.064Z,-0.9
2023-03-11T05:11:54.135Z,-0.9
2023-03-11T05:13:55.198Z,-0.9
2023-03-11T05:15:56.248Z,-1
2023-03-11T05:17:57.282Z,-0.9
2023-03-11T05:19:58.317Z,-0.9
2023-03-11T05:22:02.645Z,-1
2023-03-11T05:24:03.683Z,-1
2023-03-11T05:26:04.740Z,-1
2023-03-11T05:28:05.758Z,-1
2023-03-11T05:30:06.850Z,-1
2023-03-11T05:32:07.848Z,-1
2023-03-11T05:34:08.929Z,-1.1
2023-03-11T05:36:13.222Z,-1
2023-03-11T05:38:14.258Z,-1.1
2023-03-11T05:40:15.302Z,-1.1
2023-03-11T05:42:16.366Z,-1
2023-03-11T05:52:24.821Z,-1
2023-03-11T05:54:25.875Z,-1.1
2023-03-11T05:55:28.033Z,-1.1
2023-03-11T05:57:29.068Z,-1
2023-03-11T05:59:30.094Z,-1.1
2023-03-11T06:01:31.140Z,-1.1
2023-03-11T06:03:35.501Z,-1.2
2023-03-11T06:05:36.475Z,-1.1
2023-03-11T06:07:37.521Z,-1.1
2023-03-11T06:13:40.640Z,-1.2
2023-03-11T06:15:41.660Z,-1.2
2023-03-11T06:17:46.002Z,-1.2
2023-03-11T06:19:46.988Z,-1.2
2023-03-11T06:21:48.045Z,-1.2
2023-03-11T06:23:49.083Z,-1.2
2023-03-11T06:25:50.095Z,-1.1
2023-03-11T06:27:51.150Z,-1.1
2023-03-11T06:29:52.190Z,-1.1
2023-03-11T06:31:56.544Z,-1.1
2023-03-11T06:33:57.534Z,-1.1
2023-03-11T06:35:58.625Z,-1.1
2023-03-11T06:37:59.595Z,-1.1
2023-03-11T06:40:00.643Z,-1
2023-03-11T06:42:01.668Z,-0.9
2023-03-11T06:44:02.735Z,-0.9
2023-03-11T06:46:07.054Z,-0.9
2023-03-11T06:48:08.038Z,-0.8
2023-03-11T06:50:09.116Z,-0.7
2023-03-11T06:53:12.273Z,-0.7
2023-03-11T06:55:13.351Z,-0.7
2023-03-11T06:57:14.343Z,-0.7
2023-03-11T06:59:18.660Z,-0.6
2023-03-11T07:01:19.757Z,-0.6
2023-03-11T07:03:20.773Z,-0.4
2023-03-11T07:05:21.807Z,-0.4
2023-03-11T07:07:22.858Z,-0.3
2023-03-11T07:09:23.912Z,-0.2
2023-03-11T07:11:24.993Z,-0.3
2023-03-11T07:13:29.270Z,-0.3
2023-03-11T07:15:30.351Z,-0.3
2023-03-11T07:17:31.380Z,-0.3
2023-03-11T07:19:32.434Z,-0.2
2023-03-11T07:23:34.549Z,-0.1
2023-03-11T07:25:35.612Z,-0.1
2023-03-11T07:27:39.921Z,0
2023-03-11T07:29:40.988Z,0
2023-03-11T07:31:42.119Z,0
2023-03-11T07:33:43.133Z,0.1
2023-03-11T07:37:45.249Z,0.2
2023-03-11T07:39:46.274Z,0.3
2023-03-11T07:41:50.615Z,0.4
2023-03-11T07:43:51.685Z,0.4
2023-03-11T07:45:52.999Z,0.4
2023-03-11T07:48:21.186Z,0.4
2023-03-11T07:50:22.270Z,0.5
2023-03-11T07:52:23.301Z,0.5
2023-03-11T07:54:27.640Z,0.5
2023-03-11T07:56:28.716Z,0.5
2023-03-11T07:58:29.800Z,0.6
2023-03-11T08:00:30.876Z,0.6
2023-03-11T08:02:31.926Z,0.7
2023-03-11T08:04:33.002Z,0.8
2023-03-11T08:08:38.408Z,0.9
2023-03-11T08:10:39.525Z,1
2023-03-11T08:12:40.595Z,1
2023-03-11T08:14:41.691Z,1.1
2023-03-11T08:16:42.736Z,1.2
2023-03-11T08:18:43.849Z,1.3
2023-03-11T08:20:45.068Z,1.4
2023-03-11T08:22:57.957Z,1.4
2023-03-11T08:24:50.404Z,1.4
2023-03-11T08:26:51.529Z,1.5
2023-03-11T08:28:52.601Z,1.5
2023-03-11T08:30:53.734Z,1.5
2023-03-11T08:32:54.937Z,1.7
2023-03-11T08:34:55.895Z,1.9
2023-03-11T08:37:00.310Z,2.5
2023-03-11T08:39:01.513Z,2.7
2023-03-11T08:41:02.528Z,3.3
2023-03-11T08:42:04.693Z,3
2023-03-11T08:44:05.837Z,3
2023-03-11T08:46:07.075Z,3.2
2023-03-11T08:48:08.010Z,2.8
2023-03-11T08:50:12.387Z,2.7
2023-03-11T08:52:13.492Z,2.7
2023-03-11T08:54:14.646Z,2.7
2023-03-11T08:56:15.762Z,2.5
2023-03-11T08:58:16.885Z,2.6
2023-03-11T09:00:18.014Z,2.6
2023-03-11T09:02:19.182Z,2.8
2023-03-11T09:04:23.225Z,2.8
2023-03-11T09:08:25.490Z,2.9
2023-03-11T09:12:27.767Z,3.1
2023-03-11T09:14:28.861Z,3.4
2023-03-11T09:16:30.023Z,4
2023-03-11T09:26:39.009Z,9.5
2023-03-11T09:28:40.174Z,9.5
2023-03-11T09:30:42.884Z,9.5
2023-03-11T09:32:47.314Z,9.6
2023-03-11T09:37:51.820Z,11.5
2023-03-11T09:39:52.977Z,11.2
2023-03-11T09:45:59.825Z,9.3
2023-03-11T09:48:01.043Z,9.3
2023-03-11T09:50:02.232Z,9.5
2023-03-11T09:52:03.470Z,10.3
2023-03-11T09:56:05.879Z,10.7
2023-03-11T10:00:11.580Z,13.4
2023-03-11T10:02:12.902Z,13.6
2023-03-11T10:10:17.650Z,12.6
2023-03-11T10:12:18.919Z,13.4
2023-03-11T10:14:23.397Z,13.5
2023-03-11T10:16:24.671Z,12.7
2023-03-11T10:18:25.830Z,11.6
2023-03-11T10:20:27.064Z,11.6
2023-03-11T10:22:28.286Z,12.2
2023-03-11T10:24:29.549Z,12.6
2023-03-11T10:26:30.789Z,11.1
2023-03-11T10:28:35.256Z,9.9
2023-03-11T10:33:39.944Z,9.6
2023-03-11T10:35:41.220Z,9.1
2023-03-11T10:37:48.752Z,8.3
2023-03-11T10:39:43.644Z,7.9
2023-03-11T10:41:48.143Z,6.8
2023-03-11T10:43:49.361Z,6.8
2023-03-11T10:45:50.960Z,6.6
2023-03-11T10:47:51.817Z,6.2
2023-03-11T10:49:53.058Z,6.1
2023-03-11T10:51:54.323Z,6.3
2023-03-11T10:55:59.998Z,6.5
2023-03-11T10:58:01.225Z,6.7
2023-03-11T11:00:02.453Z,6.7
2023-03-11T11:08:07.307Z,7.1
2023-03-11T11:10:11.785Z,7.6
2023-03-11T11:12:13.008Z,7.7
2023-03-11T11:14:14.243Z,7.5
2023-03-11T11:16:15.489Z,7.2
2023-03-11T11:18:16.680Z,7.3
2023-03-11T11:20:17.920Z,7.7
2023-03-11T11:22:19.122Z,8.4
2023-03-11T11:24:23.590Z,9
2023-03-11T11:26:24.824Z,9.3
2023-03-11T11:28:26.009Z,10
2023-03-11T11:37:01.291Z,7.2
2023-03-11T11:39:02.498Z,6.8
2023-03-11T11:41:03.721Z,6.6
2023-03-11T11:43:04.965Z,6.6
2023-03-11T11:51:13.070Z,6.6
2023-03-11T11:53:14.255Z,6.5
2023-03-11T11:57:16.723Z,6.8
2023-03-11T12:15:30.899Z,6.4
2023-03-11T12:17:32.062Z,6.4
2023-03-11T12:24:41.238Z,6.8
2023-03-11T12:26:42.407Z,6.9
2023-03-11T12:28:43.586Z,6.5
2023-03-11T12:30:47.196Z,6.4
2023-03-11T12:32:49.436Z,6.7
2023-03-11T12:34:50.492Z,6.7
2023-03-11T12:36:51.706Z,6.3
2023-03-11T12:38:52.909Z,6.5
2023-03-11T12:40:54.102Z,6.7
2023-03-11T12:42:55.329Z,6.8
2023-03-11T12:47:01.099Z,6.6
2023-03-11T12:49:02.207Z,6.5
2023-03-11T12:51:03.387Z,6.6
2023-03-11T12:53:04.606Z,6.6
2023-03-11T12:55:05.792Z,6.7
2023-03-11T12:57:06.985Z,6.9
2023-03-11T13:01:12.648Z,7.3
2023-03-11T13:03:13.919Z,7.2
2023-03-11T13:05:15.066Z,7.1
2023-03-11T13:07:16.276Z,7.1
2023-03-11T13:09:17.478Z,6.7
2023-03-11T13:11:18.688Z,6.4
2023-03-11T13:13:19.895Z,6.5
2023-03-11T13:15:24.324Z,6.7
2023-03-11T13:17:25.533Z,6.8
2023-03-11T13:24:31.409Z,6.9
2023-03-11T13:28:37.050Z,7.3
2023-03-11T13:30:38.247Z,7.4
2023-03-11T13:32:39.510Z,7.3
2023-03-11T13:34:40.665Z,7.4
2023-03-11T13:36:41.847Z,7.3
2023-03-11T13:38:43.026Z,7.2
2023-03-11T13:40:45.190Z,7.2
2023-03-11T13:42:49.299Z,6.8
2023-03-11T13:44:50.527Z,6.8
2023-03-11T13:46:51.747Z,7
2023-03-11T13:48:52.956Z,7.3
2023-03-11T13:50:54.145Z,7.1
2023-03-11T13:52:55.363Z,7
2023-03-11T13:54:56.542Z,6.9
2023-03-11T13:57:01.008Z,7.3
2023-03-11T13:59:02.267Z,7.3
2023-03-11T14:01:03.452Z,7.1
2023-03-11T14:03:04.610Z,7.2
2023-03-11T14:07:07.128Z,7.2
2023-03-11T14:09:08.212Z,7.4
2023-03-11T14:11:12.701Z,7.4
2023-03-11T14:13:13.913Z,7.4
2023-03-11T14:15:15.136Z,7.4
2023-03-11T14:16:17.377Z,7.3
2023-03-11T14:18:18.561Z,7.2
2023-03-11T14:22:20.978Z,7.5
2023-03-11T14:26:26.637Z,7.4
2023-03-11T14:28:27.824Z,7.3
2023-03-11T14:32:30.297Z,7
2023-03-11T14:34:31.453Z,6.9
2023-03-11T14:36:32.692Z,6.7
2023-03-11T14:40:38.450Z,6.8
2023-03-11T14:44:40.782Z,6.8
2023-03-11T14:46:44.876Z,6.8
2023-03-11T14:48:43.175Z,6.9
2023-03-11T14:50:44.378Z,6.8
2023-03-11T14:52:48.824Z,6.8
2023-03-11T14:54:50.062Z,6.7
2023-03-11T14:56:51.274Z,6.7
2023-03-11T14:59:06.369Z,6.7
2023-03-11T15:00:53.933Z,6.7
2023-03-11T15:02:54.898Z,6.8
2023-03-11T15:04:57.027Z,6.8
2023-03-11T15:07:00.514Z,6.6
2023-03-11T15:09:01.780Z,6.6
2023-03-11T15:11:03.477Z,6.6
2023-03-11T15:13:31.277Z,6.7
2023-03-11T15:15:32.473Z,6.8
2023-03-11T15:17:39.508Z,6.8
2023-03-11T15:19:39.622Z,6.9
2023-03-11T15:21:40.851Z,6.8
2023-03-11T15:23:42.035Z,6.8
2023-03-11T15:25:43.249Z,6.8
2023-03-11T15:27:44.437Z,6.8
2023-03-11T15:29:45.635Z,6.7
2023-03-11T15:31:46.874Z,6.6
2023-03-11T15:33:51.274Z,6.6
2023-03-11T15:35:52.697Z,6.6
2023-03-11T15:37:53.682Z,6.5
2023-03-11T15:39:54.869Z,6.5
2023-03-11T15:41:56.083Z,6.5
2023-03-11T15:52:05.310Z,6.5
2023-03-11T15:58:08.874Z,6.6
2023-03-11T16:00:10.075Z,6.6
2023-03-11T16:02:14.528Z,6.4
2023-03-11T16:04:15.926Z,6.4
2023-03-11T16:07:32.828Z,6.3
2023-03-11T16:09:20.324Z,6.3
2023-03-11T16:11:21.516Z,6.4
2023-03-11T16:13:22.723Z,6.3
2023-03-11T16:15:27.172Z,6.3
2023-03-11T16:17:39.552Z,6.3
2023-03-11T16:19:29.526Z,6.3
2023-03-11T16:21:30.702Z,6.3
2023-03-11T16:23:44.830Z,6.3
2023-03-11T16:25:33.111Z,6.2
2023-03-11T16:27:34.286Z,6.2
2023-03-11T16:29:38.743Z,6.1
2023-03-11T16:31:39.910Z,6.1
2023-03-11T16:33:41.114Z,6
2023-03-11T16:35:42.328Z,6
2023-03-11T16:37:43.494Z,6
2023-03-11T16:39:44.700Z,6
2023-03-11T16:43:50.355Z,5.8
2023-03-11T16:47:52.784Z,5.8
2023-03-11T16:49:53.974Z,5.7
2023-03-11T16:58:02.022Z,5.6
2023-03-11T17:00:03.171Z,5.6
2023-03-11T17:02:04.465Z,5.5
2023-03-11T17:03:06.647Z,5.5
2023-03-11T17:05:07.838Z,5.4
2023-03-11T17:07:09.021Z,5.4
2023-03-11T17:09:10.187Z,5.3
2023-03-11T17:11:14.638Z,5.3
2023-03-11T17:15:17.055Z,5.2
2023-03-11T17:21:20.591Z,5.1
2023-03-11T17:23:21.746Z,5
2023-03-11T17:29:28.539Z,4.8
2023-03-11T17:33:30.895Z,4.8
2023-03-11T17:35:32.163Z,4.8
2023-03-11T17:37:33.267Z,4.7
2023-03-11T17:39:37.666Z,4.7
2023-03-11T17:43:40.029Z,4.6
2023-03-11T17:45:41.215Z,4.6
2023-03-11T17:47:42.376Z,4.5
2023-03-11T17:49:43.547Z,4.4
2023-03-11T17:51:44.726Z,4.4
2023-03-11T17:53:49.152Z,4.3
2023-03-11T17:55:50.421Z,4.3
2023-03-11T17:57:51.504Z,4.3
2023-03-11T17:58:53.744Z,4.3
2023-03-11T18:00:54.900Z,4.2
2023-03-11T18:02:56.057Z,4.2
2023-03-11T18:04:57.217Z,4.2
2023-03-11T18:07:01.662Z,4.1
2023-03-11T18:09:02.829Z,4.1
2023-03-11T18:11:04.011Z,4
2023-03-11T18:13:05.157Z,4
2023-03-11T18:21:13.035Z,3.7
2023-03-11T18:23:14.206Z,3.6
2023-03-11T18:25:15.386Z,3.6
2023-03-11T18:29:18.017Z,3.5
2023-03-11T18:31:18.952Z,3.4
2023-03-11T18:33:20.038Z,3.3
2023-03-11T18:35:24.469Z,3.2
2023-03-11T18:37:25.625Z,3.2
2023-03-11T18:39:26.796Z,3.1
2023-03-11T18:41:27.954Z,3.1
2023-03-11T18:43:29.120Z,3
2023-03-11T18:45:30.517Z,2.9
2023-03-11T18:47:31.427Z,2.9
2023-03-11T18:49:35.831Z,2.8
2023-03-11T18:51:36.986Z,2.8
2023-03-11T18:53:38.154Z,2.7
2023-03-11T18:56:06.543Z,2.7
2023-03-11T18:58:07.705Z,2.7
2023-03-11T19:00:08.867Z,2.6
2023-03-11T19:02:13.232Z,2.6
2023-03-11T19:04:14.426Z,2.6
2023-03-11T19:08:16.712Z,2.5
2023-03-11T19:10:17.837Z,2.5
2023-03-11T19:12:19.005Z,2.5
2023-03-11T19:14:20.127Z,2.4
2023-03-11T19:16:24.616Z,2.4
2023-03-11T19:18:25.654Z,2.4
2023-03-11T19:20:26.801Z,2.4
2023-03-11T19:22:27.950Z,2.4
2023-03-11T19:26:43.656Z,2.3
2023-03-11T19:28:31.349Z,2.3
2023-03-11T19:30:35.797Z,2.3
2023-03-11T19:32:36.927Z,2.3
2023-03-11T19:38:40.319Z,2.3
2023-03-11T19:40:41.461Z,2.3
2023-03-11T19:42:42.494Z,2.3
2023-03-11T19:44:46.877Z,2.3
2023-03-11T19:46:48.011Z,2.3
2023-03-11T19:48:49.164Z,2.3
2023-03-11T19:49:51.328Z,2.3
2023-03-11T19:57:59.192Z,2.2
2023-03-11T20:00:00.328Z,2.2
2023-03-11T20:02:01.529Z,2.1
2023-03-11T20:06:03.809Z,2
2023-03-11T20:12:10.475Z,2
2023-03-11T20:14:11.540Z,2
2023-03-11T20:16:12.774Z,2
2023-03-11T20:18:13.810Z,2
2023-03-11T20:20:15.018Z,1.9
2023-03-11T20:22:16.092Z,1.9
2023-03-11T20:24:17.263Z,1.9
2023-03-11T20:30:23.850Z,1.8
2023-03-11T20:32:25.042Z,1.8
2023-03-11T20:34:26.112Z,1.8
2023-03-11T20:36:27.287Z,1.7
2023-03-11T20:38:28.425Z,1.7
2023-03-11T20:40:32.872Z,1.6
2023-03-11T20:42:34.017Z,1.5
2023-03-11T20:45:37.220Z,1.5
2023-03-11T20:47:38.419Z,1.5
2023-03-11T20:49:39.551Z,1.5
2023-03-11T20:51:41.761Z,1.5
2023-03-11T20:53:45.046Z,1.5
2023-03-11T20:57:47.268Z,1.5
2023-03-11T21:01:49.544Z,1.4
2023-03-11T21:03:50.679Z,1.4
2023-03-11T21:05:51.800Z,1.4
2023-03-11T21:07:57.650Z,1.3
2023-03-11T21:09:58.680Z,1.3
2023-03-11T21:11:59.878Z,1.3
2023-03-11T21:14:00.951Z,1.3
2023-03-11T21:16:02.170Z,1.3
2023-03-11T21:18:03.183Z,1.3
2023-03-11T21:20:04.309Z,1.3
2023-03-11T22:07:45.148Z,1.5
2023-03-11T22:09:46.362Z,1.5
2023-03-11T22:13:48.712Z,1.5
2023-03-11T22:15:49.779Z,1.5
2023-03-11T22:17:54.154Z,1.5
2023-03-11T22:23:57.386Z,1.5
2023-03-11T22:25:58.493Z,1.5
2023-03-11T22:27:59.613Z,1.5
2023-03-11T22:30:00.731Z,1.5
2023-03-11T22:32:05.284Z,1.5
2023-03-11T22:34:06.243Z,1.5
2023-03-11T22:36:07.416Z,1.5
2023-03-11T22:38:35.829Z,1.5
2023-03-11T22:42:38.088Z,1.4
2023-03-11T22:44:42.481Z,1.5
2023-03-11T22:54:48.201Z,1.4
2023-03-11T22:56:49.196Z,1.5
2023-03-11T23:00:54.817Z,1.6
2023-03-11T23:04:56.933Z,1.7
2023-03-11T23:06:58.061Z,1.7
2023-03-11T23:08:59.179Z,1.7
2023-03-11T23:11:00.340Z,1.7
2023-03-11T23:13:04.736Z,1.7
2023-03-11T23:15:05.826Z,1.7
2023-03-11T23:17:07.027Z,1.7
2023-03-11T23:19:08.083Z,1.7
2023-03-11T23:21:09.241Z,1.7
2023-03-11T23:23:10.346Z,1.7
2023-03-11T23:25:11.504Z,1.7
2023-03-11T23:27:15.880Z,1.7
2023-03-11T23:29:16.962Z,1.7
2023-03-11T23:31:18.193Z,1.7
2023-03-11T23:32:20.394Z,1.7
2023-03-11T23:34:21.413Z,1.7
2023-03-11T23:36:22.556Z,1.7
2023-03-11T23:38:23.681Z,1.7
2023-03-11T23:40:28.046Z,1.7
2023-03-11T23:42:29.211Z,1.7
2023-03-11T23:44:30.309Z,1.7
2023-03-11T23:46:31.678Z,1.7
2023-03-11T23:48:32.612Z,1.7
2023-03-11T23:50:33.699Z,1.7
2023-03-11T23:52:34.834Z,1.7
2023-03-11T23:54:39.222Z,1.7
2023-03-11T23:56:40.355Z,1.7
2023-03-11T23:58:41.494Z,1.6
